Time;durP1;ratioP1;P1;durP2;ratioP2;P2;SDS_P1;SDS_P2;PMS_P1;PMS_P2;Temp;Humidity;BMP_temperature;BMP_pressure;BME280_temperature;BME280_humidity;BME280_pressure;Samples;Min_cycle;Max_cycle;Signal;HPM_P1;HPM_P2
2021/03/23 05:56:21;;;;;;;;;;;;;;;0.85;72.79;97597.88;1658745;82;20346;-71
2021/03/23 05:58:52;;;;;;;;;;;;;;;0.76;74.21;97588.95;1679709;84;20570;-66
2021/03/23 06:01:25;;;;;;;;;;;;;;;0.74;74.91;97593.98;1686220;83;20570;-68
2021/03/23 06:03:59;;;;;;;;;;;;;;;0.73;75.84;97590.60;1685976;84;20742;-66
2021/03/23 06:06:37;;;;;;;;;;;;;;;0.76;76.32;97586.36;1677097;85;21729;-69
2021/03/23 06:09:04;;;;;;;;;;;;;;;0.81;77.14;97587.08;1656494;84;20238;-67
2021/03/23 06:11:42;;;;;;;;;;;;;;;0.85;78.55;97590.91;1680495;84;20626;-67
2021/03/23 06:14:28;;;;;;;;;;;;;;;0.90;79.34;97583.88;1687275;84;20590;-67
2021/03/23 06:17:27;;;;;;;;;;;;;;;0.88;80.51;97575.00;1664099;84;20613;-69
2021/03/23 06:20:05;;;;;;;;;;;;;;;0.88;81.82;97578.88;1669861;84;21975;-68
2021/03/23 06:22:49;;;;;;;;;;;;;;;0.91;82.02;97575.13;1671066;84;20707;-69
2021/03/23 06:25:20;;;;;;;;;;;;;;;0.95;81.98;97581.02;1666674;84;20451;-70
2021/03/23 06:28:26;;;;;;;;;;;;;;;1.03;81.85;97575.72;1669040;84;20650;-65
2021/03/23 06:31:00;;;;;;;;;;;;;;;1.12;82.03;97574.59;1670102;85;20627;-68
2021/03/23 06:33:31;;;;;;;;;;;;;;;1.25;80.79;97569.19;1680332;83;20816;-68
2021/03/23 06:36:02;;;;;;;;;;;;;;;1.34;80.13;97576.63;1655913;84;20524;-76
2021/03/23 06:38:34;;;;;;;;;;;;;;;1.39;80.78;97579.42;1647349;84;20512;-70
2021/03/23 06:41:39;;;;;;;;;;;;;;;1.46;81.04;97571.20;1648009;84;20428;-69
2021/03/23 06:44:18;;;;;;;;;;;;;;;1.50;80.42;97567.26;1643032;84;20495;-72
2021/03/23 06:46:47;;;;;;;;;;;;;;;1.51;79.98;97566.77;1652500;85;21934;-66
2021/03/23 06:49:24;;;;;;;;;;;;;;;1.46;79.90;97567.31;1687311;84;20495;-67
2021/03/23 06:52:02;;;;;;;;;;;;;;;1.47;80.29;97565.03;1681618;84;20559;-72
2021/03/23 06:54:35;;;;;;;;;;;;;;;1.51;80.41;97566.23;1681513;84;20534;-68
2021/03/23 06:57:16;;;;;;;;;;;;;;;1.56;81.48;97570.37;1680905;84;20732;-74
2021/03/23 07:00:01;;;;;;;;;;;;;;;1.62;81.20;97571.88;1657513;84;20918;-72
2021/03/23 07:02:37;;;;;;;;;;;;;;;1.68;81.28;97573.20;1666141;84;20478;-73
2021/03/23 07:05:18;;;;;;;;;;;;;;;1.76;81.23;97561.87;1662088;84;20652;-70
2021/03/23 07:08:13;;;;;;;;;;;;;;;1.84;81.31;97557.34;1611145;87;20536;-71
2021/03/23 07:10:43;;;;;;;;;;;;;;;1.94;80.88;97567.34;1626125;85;20519;-71
2021/03/23 07:13:27;;;;;;;;;;;;;;;2.00;80.97;97570.95;1680075;83;21918;-70
2021/03/23 07:16:14;;;;;;;;;;;;;;;1.94;81.01;97575.92;1670421;83;20579;-72
2021/03/23 07:18:45;;;;;;;;;;;;;;;1.87;81.43;97568.59;1680125;83;20320;-69
2021/03/23 07:21:26;;;;;;;;;;;;;;;1.82;82.98;97578.74;1671996;84;20539;-67
2021/03/23 07:24:12;;;;;;;;;;;;;;;1.81;83.01;97575.05;1678318;84;20602;-69
2021/03/23 07:26:41;;;;;;;;;;;;;;;1.75;82.27;97561.57;1675195;83;21927;-65
2021/03/23 07:29:15;;;;;;;;;;;;;;;1.70;82.65;97566.54;1648366;86;20571;-67
2021/03/23 07:32:17;;;;;;;;;;;;;;;1.68;83.93;97571.91;1649954;85;20432;-63
2021/03/23 07:35:02;;;;;;;;;;;;;;;1.66;83.54;97576.47;1634144;86;20477;-67
2021/03/23 07:37:54;;;;;;;;;;;;;;;1.66;85.29;97569.22;1622038;86;20560;-68
2021/03/23 07:40:28;;;;;;;;;;;;;;;1.65;87.54;97560.66;1640222;85;20962;-72
2021/03/23 07:43:06;;;;;;;;;;;;;;;1.62;86.96;97557.14;1641461;85;20611;-71
2021/03/23 07:45:49;;;;;;;;;;;;;;;1.62;86.12;97561.52;1649579;84;33752;-69
2021/03/23 07:48:17;;;;;;;;;;;;;;;1.68;85.02;97557.66;1649299;85;20602;-69
2021/03/23 07:50:46;;;;;;;;;;;;;;;1.80;85.31;97569.06;1650635;85;20654;-68
2021/03/23 07:53:18;;;;;;;;;;;;;;;1.89;84.43;97551.56;1643247;85;21893;-72
2021/03/23 07:55:47;;;;;;;;;;;;;;;2.00;84.34;97556.69;1655618;85;20418;-66
2021/03/23 07:58:31;;;;;;;;;;;;;;;2.10;84.39;97546.73;1654860;84;20488;-69
2021/03/23 08:01:11;;;;;;;;;;;;;;;2.18;83.13;97559.52;1681339;84;20583;-70
2021/03/23 08:04:02;;;;;;;;;;;;;;;2.28;82.74;97552.17;1681035;83;20464;-66
2021/03/23 08:06:46;;;;;;;;;;;;;;;2.31;81.72;97552.56;1608060;84;23096;-65
2021/03/23 08:09:28;;;;;;;;;;;;;;;2.33;80.67;97563.55;1665694;83;20492;-69
2021/03/23 08:12:19;;;;;;;;;;;;;;;2.31;79.56;97557.75;1627516;84;21353;-69
2021/03/23 08:15:01;;;;;;;;;;;;;;;2.33;80.36;97551.08;1681637;83;20480;-67
2021/03/23 08:17:51;;;;;;;;;;;;;;;2.37;78.97;97538.03;1681048;83;21031;-72
2021/03/23 08:20:48;;;;;;;;;;;;;;;2.39;79.42;97548.98;1677523;83;21819;-69
2021/03/23 08:23:31;;;;;;;;;;;;;;;2.42;79.07;97538.72;1674359;83;20559;-71
2021/03/23 08:26:32;;;;;;;;;;;;;;;2.42;78.88;97534.83;1674302;83;20578;-71
2021/03/23 08:29:20;;;;;;;;;;;;;;;2.50;79.30;97538.53;1669175;83;20634;-73
2021/03/23 08:32:05;;;;;;;;;;;;;;;2.57;78.75;97530.26;1673654;84;20607;-73
2021/03/23 08:34:57;;;;;;;;;;;;;;;2.58;78.94;97531.86;1677475;84;22141;-68
2021/03/23 08:37:45;;;;;;;;;;;;;;;2.63;79.34;97533.34;1678130;83;20395;-70
2021/03/23 08:40:20;;;;;;;;;;;;;;;2.70;78.54;97523.27;1674730;84;20497;-69
2021/03/23 08:42:48;;;;;;;;;;;;;;;2.81;76.88;97523.68;1631139;83;20499;-66
2021/03/23 08:45:19;;;;;;;;;;;;;;;2.84;74.61;97524.56;1674469;83;20619;-72
2021/03/23 08:47:50;;;;;;;;;;;;;;;2.85;73.72;97531.34;1652335;83;21891;-72
2021/03/23 08:50:36;;;;;;;;;;;;;;;2.83;72.81;97523.75;1672963;83;20240;-65
2021/03/23 08:53:05;;;;;;;;;;;;;;;2.89;72.37;97521.65;1670914;83;20510;-68
2021/03/23 08:55:37;;;;;;;;;;;;;;;2.99;72.65;97519.45;1660632;84;20571;-74
2021/03/23 08:58:07;;;;;;;;;;;;;;;3.07;71.50;97513.25;1674877;82;20767;-66
2021/03/23 09:00:50;;;;;;;;;;;;;;;3.10;69.86;97508.94;1670059;84;20760;-70
2021/03/23 09:03:22;;;;;;;;;;;;;;;3.13;70.42;97490.37;1662080;84;20334;-69
2021/03/23 09:05:53;;;;;;;;;;;;;;;3.19;71.41;97506.42;1678013;84;20148;-69
2021/03/23 09:08:30;;;;;;;;;;;;;;;3.28;70.23;97494.83;1674015;85;20328;-71
2021/03/23 09:11:11;;;;;;;;;;;;;;;3.37;70.48;97504.49;1676538;84;20720;-67
2021/03/23 09:13:45;;;;;;;;;;;;;;;3.46;69.14;97495.45;1674989;83;21863;-70
2021/03/23 09:16:18;;;;;;;;;;;;;;;3.47;68.60;97497.84;1674531;84;20590;-73
2021/03/23 09:19:07;;;;;;;;;;;;;;;3.54;68.77;97488.23;1677479;84;20443;-72
2021/03/23 09:21:56;;;;;;;;;;;;;;;3.63;68.03;97493.99;1675369;84;20716;-72
2021/03/23 09:24:33;;;;;;;;;;;;;;;3.72;66.70;97489.36;1674516;83;20472;-70
2021/03/23 09:27:02;;;;;;;;;;;;;;;3.82;66.82;97485.30;1678783;83;22588;-70
2021/03/23 09:29:42;;;;;;;;;;;;;;;3.98;65.98;97474.11;1668181;83;20536;-69
2021/03/23 09:32:24;;;;;;;;;;;;;;;4.10;63.79;97478.46;1666494;84;20124;-70
2021/03/23 09:35:09;;;;;;;;;;;;;;;4.13;62.50;97475.42;1669336;83;20464;-68
2021/03/23 09:38:00;;;;;;;;;;;;;;;4.16;62.27;97464.61;1679459;83;20627;-73
2021/03/23 09:40:32;;;;;;;;;;;;;;;4.25;61.91;97462.55;1672677;83;22111;-71
2021/03/23 09:43:07;;;;;;;;;;;;;;;4.30;60.62;97460.11;1673886;83;20254;-69
2021/03/23 09:45:38;;;;;;;;;;;;;;;4.32;58.53;97454.97;1676010;83;20514;-69
2021/03/23 09:48:16;;;;;;;;;;;;;;;4.35;58.81;97446.45;1676021;83;20325;-69
2021/03/23 09:50:51;;;;;;;;;;;;;;;4.32;58.06;97458.87;1674982;83;20753;-70
2021/03/23 09:53:35;;;;;;;;;;;;;;;4.31;58.86;97448.20;1678563;83;21934;-73
2021/03/23 09:56:07;;;;;;;;;;;;;;;4.35;58.21;97455.56;1666555;83;20573;-71
2021/03/23 09:58:35;;;;;;;;;;;;;;;4.35;57.06;97454.26;1674967;82;20572;-73
2021/03/23 10:01:20;;;;;;;;;;;;;;;4.33;57.51;97443.55;1670995;83;20784;-78
2021/03/23 10:03:50;;;;;;;;;;;;;;;4.36;58.07;97429.84;1675399;83;20668;-71
2021/03/23 10:06:24;;;;;;;;;;;;;;;4.46;58.17;97422.36;1675915;84;21921;-74
2021/03/23 10:09:03;;;;;;;;;;;;;;;4.57;56.04;97425.55;1679964;84;20483;-70
2021/03/23 10:11:42;;;;;;;;;;;;;;;4.64;55.78;97435.39;1680976;83;20238;-69
2021/03/23 10:14:14;;;;;;;;;;;;;;;4.68;55.70;97419.13;1672181;83;20665;-73
2021/03/23 10:16:42;;;;;;;;;;;;;;;4.74;55.03;97427.11;1679886;83;20570;-71
2021/03/23 10:19:20;;;;;;;;;;;;;;;4.77;55.00;97426.66;1684521;83;20793;-71
2021/03/23 10:21:51;;;;;;;;;;;;;;;4.79;54.47;97426.74;1677950;83;20584;-69
2021/03/23 10:24:22;;;;;;;;;;;;;;;4.82;53.99;97416.41;1678560;83;20640;-68
2021/03/23 10:26:51;;;;;;;;;;;;;;;4.84;53.21;97405.26;1677516;84;20227;-71
2021/03/23 10:29:28;;;;;;;;;;;;;;;4.90;52.67;97410.92;1676400;83;20485;-71
2021/03/23 10:31:58;;;;;;;;;;;;;;;4.97;52.06;97399.93;1672993;83;21973;-68
2021/03/23 10:34:29;;;;;;;;;;;;;;;5.05;52.10;97402.22;1670845;83;20812;-67
2021/03/23 10:37:00;;;;;;;;;;;;;;;5.02;51.45;97413.09;1673172;83;20437;-68
2021/03/23 10:39:35;;;;;;;;;;;;;;;4.95;52.92;97390.23;1674337;83;20502;-70
2021/03/23 10:42:16;;;;;;;;;;;;;;;4.92;52.39;97390.15;1669954;84;20958;-72
2021/03/23 10:44:44;;;;;;;;;;;;;;;4.95;52.63;97385.82;1669904;84;21875;-71
2021/03/23 10:47:14;;;;;;;;;;;;;;;5.04;51.89;97379.81;1674055;84;20830;-67
2021/03/23 10:49:42;;;;;;;;;;;;;;;5.09;51.40;97377.34;1677230;83;20556;-68
2021/03/23 10:52:20;;;;;;;;;;;;;;;5.05;51.07;97380.08;1673236;84;20595;-69
2021/03/23 10:54:49;;;;;;;;;;;;;;;4.96;52.35;97393.92;1681725;83;20618;-70
2021/03/23 10:57:27;;;;;;;;;;;;;;;4.88;52.75;97396.81;1683202;83;22163;-72
2021/03/23 10:59:57;;;;;;;;;;;;;;;4.74;52.81;97394.06;1652768;85;20652;-70
2021/03/23 11:02:31;;;;;;;;;;;;;;;4.64;53.08;97395.05;1656273;85;20631;-74
2021/03/23 11:05:08;;;;;;;;;;;;;;;4.54;54.30;97391.63;1644758;85;20590;-69
2021/03/23 11:07:40;;;;;;;;;;;;;;;4.45;54.97;97382.53;1651386;86;20498;-68
2021/03/23 11:10:10;;;;;;;;;;;;;;;4.43;54.96;97377.24;1654927;84;21917;-75
2021/03/23 11:12:43;;;;;;;;;;;;;;;4.40;54.36;97386.77;1650571;84;20490;-70
2021/03/23 11:15:13;;;;;;;;;;;;;;;4.37;54.84;97368.50;1645778;85;20496;-71
2021/03/23 11:17:51;;;;;;;;;;;;;;;4.35;55.00;97380.91;1648732;85;20758;-68
2021/03/23 11:20:35;;;;;;;;;;;;;;;4.32;55.66;97369.65;1645511;84;20405;-72
2021/03/23 11:23:05;;;;;;;;;;;;;;;4.28;56.05;97375.77;1644844;84;21486;-69
2021/03/23 11:25:34;;;;;;;;;;;;;;;4.24;56.14;97388.92;1625052;85;20558;-70
2021/03/23 11:28:02;;;;;;;;;;;;;;;4.13;56.82;97389.59;1652182;85;20234;-69
2021/03/23 11:30:30;;;;;;;;;;;;;;;4.07;57.35;97383.95;1648537;84;20613;-73
2021/03/23 11:32:58;;;;;;;;;;;;;;;4.03;57.06;97393.70;1648834;84;20635;-68
2021/03/23 11:35:26;;;;;;;;;;;;;;;4.04;57.38;97400.47;1650040;84;21937;-67
2021/03/23 11:37:54;;;;;;;;;;;;;;;4.04;58.18;97403.06;1640528;86;20489;-70
2021/03/23 11:40:22;;;;;;;;;;;;;;;3.95;59.44;97418.66;1642327;85;20608;-72
2021/03/23 11:42:50;;;;;;;;;;;;;;;3.78;64.08;97409.25;1650317;84;20623;-65
2021/03/23 11:45:33;;;;;;;;;;;;;;;3.56;65.01;97434.77;1651745;84;20984;-66
2021/03/23 11:48:05;;;;;;;;;;;;;;;3.37;66.47;97427.88;1649744;84;21793;-68
2021/03/23 11:50:34;;;;;;;;;;;;;;;3.18;71.12;97441.70;1647677;84;20583;-65
2021/03/23 11:53:02;;;;;;;;;;;;;;;2.97;81.15;97449.27;1649787;84;20675;-72
2021/03/23 11:55:34;;;;;;;;;;;;;;;2.67;100.00;97443.72;1657521;84;20316;-73
2021/03/23 11:58:04;;;;;;;;;;;;;;;2.41;97.68;97435.48;1647494;84;20610;-68
2021/03/23 12:00:33;;;;;;;;;;;;;;;2.27;98.25;97442.47;1674729;83;21913;-67
2021/03/23 12:03:03;;;;;;;;;;;;;;;2.22;97.34;97444.88;1678716;83;20326;-72
2021/03/23 12:05:36;;;;;;;;;;;;;;;2.21;96.51;97440.68;1676700;83;20491;-70
2021/03/23 12:08:26;;;;;;;;;;;;;;;2.23;98.10;97438.66;1679715;83;20586;-68
2021/03/23 12:11:27;;;;;;;;;;;;;;;2.27;99.48;97438.58;1672220;83;20602;-71
2021/03/23 12:14:07;;;;;;;;;;;;;;;2.34;96.68;97442.47;1679036;83;21894;-72
2021/03/23 12:16:42;;;;;;;;;;;;;;;2.39;92.96;97449.14;1673335;83;20498;-73
2021/03/23 12:19:13;;;;;;;;;;;;;;;2.37;90.44;97449.86;1682734;83;20358;-70
2021/03/23 12:21:43;;;;;;;;;;;;;;;2.31;90.67;97444.95;1681514;84;20385;-71
2021/03/23 12:24:12;;;;;;;;;;;;;;;2.27;90.46;97448.15;1683809;83;21342;-71
2021/03/23 12:26:40;;;;;;;;;;;;;;;2.17;91.08;97436.87;1685595;83;22056;-68
2021/03/23 12:29:09;;;;;;;;;;;;;;;2.12;91.46;97450.94;1683702;83;20418;-69
2021/03/23 12:31:38;;;;;;;;;;;;;;;2.10;91.88;97441.25;1681675;83;20596;-67
2021/03/23 12:34:06;;;;;;;;;;;;;;;2.11;91.65;97446.74;1683171;83;20296;-74
2021/03/23 12:36:34;;;;;;;;;;;;;;;2.11;91.18;97445.94;1677052;83;20645;-71
2021/03/23 12:39:03;;;;;;;;;;;;;;;2.11;91.58;97444.15;1679264;84;22081;-74
2021/03/23 12:41:32;;;;;;;;;;;;;;;2.14;91.25;97441.67;1686592;83;20485;-69
2021/03/23 12:44:00;;;;;;;;;;;;;;;2.15;91.05;97440.19;1689043;83;20253;-71
2021/03/23 12:46:29;;;;;;;;;;;;;;;2.17;90.65;97437.36;1676885;83;20617;-70
2021/03/23 12:49:00;;;;;;;;;;;;;;;2.17;90.64;97438.66;1676610;83;20583;-73
2021/03/23 12:51:48;;;;;;;;;;;;;;;2.16;90.77;97444.88;1681293;83;21232;-70
2021/03/23 12:54:26;;;;;;;;;;;;;;;2.17;91.01;97440.76;1678314;83;20544;-69
2021/03/23 12:56:56;;;;;;;;;;;;;;;2.16;90.22;97440.45;1682025;83;20764;-69
2021/03/23 12:59:25;;;;;;;;;;;;;;;2.15;90.26;97438.09;1682898;82;20610;-69
2021/03/23 13:01:53;;;;;;;;;;;;;;;2.16;90.07;97442.28;1678650;83;20665;-71
2021/03/23 13:04:22;;;;;;;;;;;;;;;2.17;90.18;97445.95;1676348;83;20803;-68
2021/03/23 13:06:52;;;;;;;;;;;;;;;2.16;90.56;97452.12;1676919;83;20527;-73
2021/03/23 13:09:20;;;;;;;;;;;;;;;2.17;90.96;97452.42;1654766;83;20485;-71
2021/03/23 13:11:49;;;;;;;;;;;;;;;2.16;91.48;97452.65;1684923;82;20618;-71
2021/03/23 13:14:22;;;;;;;;;;;;;;;2.20;92.01;97457.23;1683917;84;20595;-69
2021/03/23 13:16:52;;;;;;;;;;;;;;;2.22;91.98;97451.84;1687727;84;20892;-68
2021/03/23 13:19:21;;;;;;;;;;;;;;;2.22;92.04;97448.76;1677385;82;20569;-74
2021/03/23 13:21:55;;;;;;;;;;;;;;;2.23;92.09;97449.03;1689105;82;20392;-69
2021/03/23 13:24:38;;;;;;;;;;;;;;;2.22;92.56;97450.05;1683534;83;20670;-73
2021/03/23 13:27:17;;;;;;;;;;;;;;;2.22;91.95;97446.66;1682038;82;20797;-71
2021/03/23 13:29:45;;;;;;;;;;;;;;;2.21;92.08;97448.95;1685621;83;20672;-68
2021/03/23 13:32:14;;;;;;;;;;;;;;;2.12;92.90;97456.13;1686262;83;20571;-66
2021/03/23 13:34:42;;;;;;;;;;;;;;;2.06;93.96;97457.41;1682918;83;20231;-72
2021/03/23 13:37:10;;;;;;;;;;;;;;;2.03;94.70;97460.38;1684857;84;20488;-70
2021/03/23 13:39:41;;;;;;;;;;;;;;;1.98;95.62;97466.17;1687850;82;20490;-69
2021/03/23 13:42:21;;;;;;;;;;;;;;;1.95;95.40;97466.05;1687239;83;20787;-72
2021/03/23 13:45:15;;;;;;;;;;;;;;;1.87;97.37;97464.17;1690298;83;20160;-71
2021/03/23 13:47:43;;;;;;;;;;;;;;;1.79;98.38;97465.64;1696459;83;20535;-71
2021/03/23 13:50:13;;;;;;;;;;;;;;;1.73;97.91;97467.72;1683482;83;20475;-71
2021/03/23 13:52:47;;;;;;;;;;;;;;;1.72;100.00;97475.19;1685681;82;20946;-74
2021/03/23 13:55:34;;;;;;;;;;;;;;;1.67;100.00;97468.48;1685408;84;21947;-70
2021/03/23 13:58:02;;;;;;;;;;;;;;;1.65;100.00;97476.47;1680926;83;20602;-66
2021/03/23 14:00:32;;;;;;;;;;;;;;;1.52;100.00;97476.40;1688431;83;20503;-72
2021/03/23 14:03:00;;;;;;;;;;;;;;;1.42;100.00;97478.57;1686900;83;20499;-68
2021/03/23 14:05:30;;;;;;;;;;;;;;;1.31;100.00;97476.02;1694858;82;20821;-68
2021/03/23 14:07:58;;;;;;;;;;;;;;;1.28;100.00;97479.51;1693679;82;22608;-68
2021/03/23 14:10:28;;;;;;;;;;;;;;;1.27;100.00;97473.53;1684897;84;20519;-68
2021/03/23 14:12:58;;;;;;;;;;;;;;;1.31;100.00;97469.55;1696017;84;20623;-66
2021/03/23 14:15:29;;;;;;;;;;;;;;;1.39;100.00;97478.45;1661933;84;20505;-68
2021/03/23 14:17:58;;;;;;;;;;;;;;;1.44;100.00;97475.30;1687004;83;21181;-68
2021/03/23 14:20:28;;;;;;;;;;;;;;;1.49;100.00;97473.72;1688201;83;21986;-63
2021/03/23 14:23:05;;;;;;;;;;;;;;;1.51;100.00;97475.59;1687706;83;20430;-69
2021/03/23 14:25:35;;;;;;;;;;;;;;;1.52;100.00;97482.88;1632716;86;20483;-68
2021/03/23 14:28:04;;;;;;;;;;;;;;;1.52;100.00;97483.67;1665672;84;20520;-66
2021/03/23 14:30:34;;;;;;;;;;;;;;;1.56;100.00;97486.69;1687352;83;20516;-70
2021/03/23 14:33:03;;;;;;;;;;;;;;;1.62;100.00;97487.20;1684882;83;21777;-73
2021/03/23 14:35:31;;;;;;;;;;;;;;;1.68;100.00;97494.20;1680446;83;20292;-67
2021/03/23 14:38:01;;;;;;;;;;;;;;;1.75;100.00;97490.33;1694437;83;20571;-64
2021/03/23 14:40:36;;;;;;;;;;;;;;;1.80;99.66;97482.27;1680942;83;20499;-70
2021/03/23 14:43:07;;;;;;;;;;;;;;;1.85;96.39;97485.09;1682217;83;20776;-73
2021/03/23 14:45:35;;;;;;;;;;;;;;;1.89;96.24;97484.19;1687081;84;21792;-69
2021/03/23 14:48:04;;;;;;;;;;;;;;;1.96;95.74;97489.69;1681885;83;20556;-72
2021/03/23 14:50:32;;;;;;;;;;;;;;;2.02;94.10;97488.62;1682845;83;20575;-72
2021/03/23 14:53:00;;;;;;;;;;;;;;;2.03;92.59;97498.77;1675957;84;20499;-70
2021/03/23 14:55:29;;;;;;;;;;;;;;;2.05;93.92;97497.28;1673138;84;20496;-68
2021/03/23 14:57:58;;;;;;;;;;;;;;;2.07;93.73;97498.69;1682117;83;21889;-71
2021/03/23 15:00:38;;;;;;;;;;;;;;;2.08;92.62;97499.00;1670964;84;20746;-68
